Time;durP1;ratioP1;P1;durP2;ratioP2;P2;SDS_P1;SDS_P2;PMS_P1;PMS_P2;Temp;Humidity;BMP_temperature;BMP_pressure;BME280_temperature;BME280_humidity;BME280_pressure;Samples;Min_cycle;Max_cycle;Signal;HPM_P1;HPM_P2
2023/08/28 00:01:23;;;;;;;45.53;3.63;;;12.60;5.90;;;;;;5033759;28;20184;-79
2023/08/28 00:03:53;;;;;;;55.53;4.30;;;12.60;8.20;;;;;;5032066;28;20961;-79
2023/08/28 00:06:23;;;;;;;52.97;4.13;;;12.60;5.00;;;;;;5016267;28;20436;-82
2023/08/28 00:09:17;;;;;;;47.57;3.57;;;12.70;7.90;;;;;;5025290;28;20891;-82
2023/08/28 00:11:47;;;;;;;36.57;3.23;;;12.50;5.00;;;;;;5021774;28;20476;-82
2023/08/28 00:14:58;;;;;;;44.07;4.00;;;12.50;8.10;;;;;;5020608;28;20825;-81
2023/08/28 00:17:30;;;;;;;46.77;3.77;;;12.40;10.10;;;;;;5012250;28;20408;-82
2023/08/28 00:19:59;;;;;;;38.13;2.90;;;12.40;8.90;;;;;;5029128;28;20408;-82
2023/08/28 00:22:29;;;;;;;41.57;3.37;;;12.40;8.40;;;;;;5018978;28;20964;-79
2023/08/28 00:25:08;;;;;;;46.40;4.10;;;12.40;10.80;;;;;;5029406;28;20435;-78
2023/08/28 00:27:35;;;;;;;36.00;3.60;;;12.30;10.30;;;;;;5013773;28;20462;-79
2023/08/28 00:30:04;;;;;;;35.60;2.83;;;12.40;10.40;;;;;;5025687;28;20423;-79
2023/08/28 00:32:47;;;;;;;39.97;3.33;;;12.20;8.50;;;;;;5014748;28;20401;-79
2023/08/28 00:35:17;;;;;;;40.40;3.07;;;12.20;12.30;;;;;;5029341;28;20419;-79
2023/08/28 00:37:59;;;;;;;33.80;2.80;;;12.30;9.60;;;;;;5014055;28;20887;-82
2023/08/28 00:40:55;;;;;;;37.77;3.30;;;12.20;9.40;;;;;;5013781;28;20923;-82
2023/08/28 00:43:21;;;;;;;39.83;3.80;;;12.10;10.30;;;;;;5002654;28;20452;-82
2023/08/28 00:45:53;;;;;;;37.73;3.97;;;12.00;11.70;;;;;;5010398;28;20416;-82
2023/08/28 00:48:41;;;;;;;40.23;3.37;;;12.00;17.10;;;;;;4985903;28;20224;-82
2023/08/28 00:51:28;;;;;;;37.63;3.27;;;12.00;12.90;;;;;;5006218;28;20466;-81
2023/08/28 00:54:07;;;;;;;42.33;3.40;;;12.00;14.60;;;;;;4992329;28;20409;-82
2023/08/28 00:56:48;;;;;;;40.03;4.30;;;12.10;13.30;;;;;;5008706;28;20466;-82
2023/08/28 00:59:17;;;;;;;50.13;3.60;;;12.00;12.90;;;;;;4995371;28;20431;-82
2023/08/28 01:02:04;;;;;;;43.33;3.23;;;12.00;11.10;;;;;;5008734;28;20467;-82
2023/08/28 01:04:35;;;;;;;34.40;3.77;;;12.00;11.50;;;;;;4998331;28;20435;-81
2023/08/28 01:07:27;;;;;;;35.17;3.60;;;12.10;13.80;;;;;;5010526;28;20896;-81
2023/08/28 01:10:21;;;;;;;42.60;3.43;;;12.00;10.70;;;;;;4996082;28;20443;-81
2023/08/28 01:13:04;;;;;;;35.17;3.67;;;12.00;13.00;;;;;;5011336;28;20434;-81
2023/08/28 01:15:41;;;;;;;36.40;3.40;;;;;;;;;;4994645;28;20431;-82
2023/08/28 01:18:29;;;;;;;39.93;3.53;;;12.00;6.80;;;;;;4998877;28;20791;-81
2023/08/28 01:24:22;;;;;;;38.13;3.10;;;11.90;10.40;;;;;;5028223;28;20869;-81
2023/08/28 01:26:47;;;;;;;51.27;3.57;;;11.80;11.50;;;;;;5028420;28;20440;-82
2023/08/28 01:29:13;;;;;;;42.20;3.33;;;11.90;11.90;;;;;;5026908;28;20877;-82
2023/08/28 01:31:39;;;;;;;39.43;3.30;;;11.80;10.60;;;;;;5017083;28;20613;-82
2023/08/28 01:34:04;;;;;;;42.50;3.30;;;11.70;11.90;;;;;;5021159;28;20227;-82
2023/08/28 01:36:51;;;;;;;38.67;2.97;;;11.80;14.50;;;;;;5025073;28;20192;-82
2023/08/28 01:39:33;;;;;;;56.23;3.10;;;11.70;12.70;;;;;;5024574;28;20227;-79
2023/08/28 01:41:59;;;;;;;39.63;3.00;;;11.80;13.20;;;;;;5033440;28;20438;-79
2023/08/28 01:44:36;;;;;;;39.73;3.70;;;11.70;11.90;;;;;;5032694;28;20844;-79
2023/08/28 01:47:23;;;;;;;33.10;2.73;;;11.70;10.40;;;;;;5024680;28;20450;-79
2023/08/28 01:49:53;;;;;;;35.60;3.07;;;11.70;8.40;;;;;;5036900;28;20431;-79
2023/08/28 01:52:23;;;;;;;43.83;3.20;;;11.60;10.10;;;;;;5035341;28;20462;-82
2023/08/28 01:54:59;;;;;;;39.07;3.17;;;11.60;12.10;;;;;;5034599;28;20793;-82
2023/08/28 01:57:29;;;;;;;44.93;3.50;;;11.60;9.70;;;;;;5020009;28;20435;-82
2023/08/28 01:59:59;;;;;;;45.80;3.67;;;11.70;13.00;;;;;;5021412;28;20419;-82
2023/08/28 02:02:41;;;;;;;36.93;3.70;;;11.70;13.20;;;;;;5036234;28;20442;-82
2023/08/28 02:05:11;;;;;;;39.00;3.40;;;11.60;12.50;;;;;;5023524;28;20434;-82
2023/08/28 02:07:37;;;;;;;38.87;4.07;;;11.60;12.50;;;;;;5036318;28;20443;-79
2023/08/28 02:10:03;;;;;;;34.53;3.20;;;11.60;9.40;;;;;;5031400;28;20424;-79
2023/08/28 02:12:52;;;;;;;34.00;3.50;;;11.50;13.10;;;;;;5018023;28;20528;-79
2023/08/28 02:15:35;;;;;;;42.73;4.07;;;11.50;13.60;;;;;;5034755;28;20432;-81
2023/08/28 02:18:46;;;;;;;35.07;3.67;;;11.60;15.70;;;;;;5028313;28;20467;-79
2023/08/28 02:21:23;;;;;;;44.27;4.77;;;11.50;16.80;;;;;;5022989;28;20403;-79
2023/08/28 02:24:05;;;;;;;47.37;4.13;;;11.50;17.10;;;;;;5023871;28;20780;-81
2023/08/28 02:26:52;;;;;;;35.90;3.20;;;11.50;17.60;;;;;;5019945;28;20431;-81
2023/08/28 02:29:35;;;;;;;38.50;3.57;;;11.50;16.90;;;;;;5022227;28;20490;-81
2023/08/28 02:32:17;;;;;;;35.37;3.50;;;11.50;16.20;;;;;;5024775;28;20750;-81
2023/08/28 02:35:34;;;;;;;50.50;3.70;;;11.50;14.60;;;;;;5033543;28;20434;-82
2023/08/28 02:38:08;;;;;;;42.67;4.40;;;11.50;17.50;;;;;;5025196;28;20431;-81
2023/08/28 02:41:05;;;;;;;43.03;4.43;;;11.50;19.20;;;;;;5029192;28;20475;-81
2023/08/28 02:43:53;;;;;;;35.50;3.70;;;11.40;22.30;;;;;;5024309;28;20438;-82
2023/08/28 02:46:29;;;;;;;41.63;4.70;;;11.50;20.10;;;;;;5014332;28;20748;-82
2023/08/28 02:48:59;;;;;;;46.60;4.30;;;11.50;22.30;;;;;;5018015;28;20478;-81
2023/08/28 02:51:41;;;;;;;33.40;3.07;;;11.50;20.90;;;;;;5029641;28;20502;-81
2023/08/28 02:54:23;;;;;;;42.53;4.00;;;11.60;21.80;;;;;;5033846;28;20797;-82
2023/08/28 02:57:00;;;;;;;36.00;3.87;;;11.50;22.50;;;;;;5028783;28;20920;-82
2023/08/28 03:00:18;;;;;;;34.07;3.07;;;11.60;19.90;;;;;;5028165;28;20446;-81
2023/08/28 03:03:04;;;;;;;39.73;3.20;;;11.50;17.90;;;;;;5028634;28;20435;-81
2023/08/28 03:06:05;;;;;;;41.80;3.60;;;11.50;18.10;;;;;;5026313;28;20410;-82
2023/08/28 03:08:52;;;;;;;33.50;3.37;;;11.60;19.20;;;;;;5026406;28;20497;-82
2023/08/28 03:14:40;;;;;;;31.47;3.00;;;11.50;20.90;;;;;;5032686;28;20468;-82
2023/08/28 03:17:11;;;;;;;40.43;4.50;;;11.50;17.80;;;;;;5024166;28;20523;-82
2023/08/28 03:19:41;;;;;;;34.63;3.23;;;11.50;20.40;;;;;;5014975;28;20184;-82
2023/08/28 03:22:07;;;;;;;34.97;3.77;;;11.60;19.20;;;;;;5031074;28;20469;-82
2023/08/28 03:24:47;;;;;;;36.17;3.63;;;11.60;19.30;;;;;;5031846;28;20501;-81
2023/08/28 03:27:23;;;;;;;35.17;3.97;;;11.60;19.40;;;;;;5029660;28;20180;-82
2023/08/28 03:30:06;;;;;;;44.77;4.27;;;11.60;16.50;;;;;;5034443;28;20916;-82
2023/08/28 03:32:35;;;;;;;37.40;4.13;;;11.60;19.50;;;;;;5015881;28;20431;-82
2023/08/28 03:35:29;;;;;;;35.20;3.63;;;11.60;18.10;;;;;;5022040;28;20949;-82
2023/08/28 03:38:08;;;;;;;51.37;3.80;;;11.60;17.40;;;;;;5013355;28;20442;-82
2023/08/28 03:41:16;;;;;;;36.57;3.70;;;11.50;15.50;;;;;;5033890;28;20891;-80
2023/08/28 03:43:47;;;;;;;39.57;4.07;;;11.50;19.20;;;;;;5015798;28;20419;-79
2023/08/28 03:46:34;;;;;;;50.20;3.83;;;11.60;14.20;;;;;;5014606;28;20432;-80
2023/08/28 03:49:05;;;;;;;39.63;3.80;;;11.60;15.80;;;;;;5021197;28;20470;-79
2023/08/28 03:51:31;;;;;;;38.10;3.40;;;11.60;13.20;;;;;;5020713;28;20417;-79
2023/08/28 03:54:40;;;;;;;34.63;3.57;;;11.50;14.10;;;;;;5034196;28;20511;-81
2023/08/28 03:57:11;;;;;;;33.03;3.90;;;11.50;12.30;;;;;;5038388;28;20212;-82
2023/08/28 03:59:53;;;;;;;31.40;3.00;;;11.50;12.80;;;;;;5031476;28;20419;-82
2023/08/28 04:02:23;;;;;;;38.07;3.67;;;11.50;16.90;;;;;;5024260;28;20449;-82
2023/08/28 04:05:34;;;;;;;40.23;3.50;;;11.50;12.70;;;;;;5031954;28;20431;-82
2023/08/28 04:08:00;;;;;;;37.20;4.33;;;11.50;15.70;;;;;;5032385;28;20545;-82
2023/08/28 04:11:05;;;;;;;45.83;3.87;;;11.50;15.60;;;;;;5032680;28;20491;-81
2023/08/28 04:13:41;;;;;;;32.67;3.23;;;11.60;15.60;;;;;;5031329;28;20347;-80
2023/08/28 04:19:28;;;;;;;34.53;4.13;;;11.60;18.00;;;;;;5019885;28;20503;-79
2023/08/28 04:21:59;;;;;;;34.60;4.07;;;11.60;18.90;;;;;;5032548;28;21380;-79
2023/08/28 04:24:29;;;;;;;34.27;3.40;;;11.60;19.20;;;;;;5033890;28;20180;-82
2023/08/28 04:27:22;;;;;;;33.67;3.20;;;11.70;22.20;;;;;;5033586;28;20914;-82
2023/08/28 04:30:11;;;;;;;44.80;3.67;;;11.70;22.10;;;;;;5029410;28;20430;-83
2023/08/28 04:32:41;;;;;;;40.80;3.80;;;11.70;20.80;;;;;;5031993;28;20450;-83
2023/08/28 04:35:34;;;;;;;35.93;3.77;;;11.70;20.10;;;;;;5019035;28;20430;-82
2023/08/28 04:38:34;;;;;;;33.10;3.70;;;11.70;18.40;;;;;;5021622;28;20473;-83
2023/08/28 04:41:05;;;;;;;34.10;3.30;;;11.70;18.40;;;;;;5028401;28;20480;-83
2023/08/28 04:44:22;;;;;;;36.50;3.73;;;11.70;19.70;;;;;;5029596;28;20461;-83
2023/08/28 04:46:59;;;;;;;42.20;3.80;;;11.70;19.70;;;;;;5015568;28;20462;-83
2023/08/28 04:49:25;;;;;;;46.37;3.70;;;11.70;17.60;;;;;;5022858;28;20467;-82
2023/08/28 04:51:59;;;;;;;39.73;3.43;;;11.70;17.10;;;;;;5038304;28;20488;-83
2023/08/28 04:54:41;;;;;;;35.00;3.10;;;11.60;17.30;;;;;;5035142;28;20547;-83
2023/08/28 04:57:28;;;;;;;32.77;3.40;;;11.60;19.20;;;;;;5032019;28;20445;-83
2023/08/28 05:00:17;;;;;;;37.90;4.33;;;11.60;20.90;;;;;;5017045;28;20410;-83
2023/08/28 05:02:47;;;;;;;32.73;3.53;;;11.60;20.10;;;;;;5019409;28;20431;-83
2023/08/28 05:05:29;;;;;;;43.10;3.50;;;11.70;17.80;;;;;;5032329;28;20983;-82
2023/08/28 05:08:16;;;;;;;37.90;3.47;;;11.70;16.70;;;;;;5029052;28;20809;-82
2023/08/28 05:11:04;;;;;;;39.03;3.53;;;11.80;15.60;;;;;;5029679;28;20403;-80
2023/08/28 05:16:52;;;;;;;32.30;3.57;;;11.90;15.20;;;;;;5009585;28;20476;-79
2023/08/28 05:19:23;;;;;;;40.80;4.30;;;11.90;17.20;;;;;;5023207;28;20431;-80
2023/08/28 05:22:34;;;;;;;36.13;4.10;;;12.00;13.60;;;;;;5028998;28;20519;-80
2023/08/28 05:25:05;;;;;;;39.00;4.23;;;12.00;13.80;;;;;;5030196;28;20413;-80
2023/08/28 05:27:53;;;;;;;35.87;4.20;;;12.10;14.80;;;;;;5017758;28;20467;-80
2023/08/28 05:30:23;;;;;;;38.77;4.20;;;12.20;15.10;;;;;;5028111;28;20394;-80
2023/08/28 05:33:28;;;;;;;36.80;3.47;;;12.20;17.30;;;;;;5021855;28;20982;-80
2023/08/28 05:36:08;;;;;;;33.37;3.40;;;12.20;17.60;;;;;;5022424;28;20456;-80
2023/08/28 05:38:53;;;;;;;36.10;3.57;;;12.30;17.60;;;;;;5022106;28;20444;-80
2023/08/28 05:41:35;;;;;;;38.17;4.30;;;12.40;19.40;;;;;;5023534;28;20439;-81
2023/08/28 05:44:01;;;;;;;39.43;4.40;;;12.40;19.60;;;;;;5034471;28;20426;-80
2023/08/28 05:46:27;;;;;;;37.13;3.97;;;12.50;21.20;;;;;;5032729;28;20434;-80
2023/08/28 05:49:11;;;;;;;46.33;4.00;;;12.60;19.40;;;;;;5029907;28;20215;-80
2023/08/28 05:51:41;;;;;;;37.50;4.47;;;12.70;22.50;;;;;;5023669;28;20254;-80
2023/08/28 05:54:41;;;;;;;41.83;4.40;;;12.90;15.60;;;;;;5023120;28;20428;-80
2023/08/28 05:57:23;;;;;;;38.83;4.37;;;12.90;18.20;;;;;;5030862;28;20431;-80
2023/08/28 05:59:56;;;;;;;34.53;4.23;;;13.00;16.50;;;;;;5028386;28;20434;-80
2023/08/28 06:02:23;;;;;;;35.20;4.22;;;13.10;17.40;;;;;;4891706;28;3933795;-80
2023/08/28 06:05:06;;;;;;;45.20;4.90;;;13.20;18.50;;;;;;5031530;28;20177;-80
2023/08/28 06:07:35;;;;;;;42.00;4.30;;;13.40;19.70;;;;;;5034604;28;20434;-80
2023/08/28 06:10:38;;;;;;;34.23;3.83;;;13.50;23.00;;;;;;5024666;28;20454;-80
2023/08/28 06:13:23;;;;;;;39.00;4.33;;;13.50;26.20;;;;;;5034700;28;20393;-81
2023/08/28 06:15:48;;;;;;;38.80;4.23;;;13.70;28.30;;;;;;5022636;28;20439;-81
2023/08/28 06:18:17;;;;;;;38.40;3.83;;;13.80;28.00;;;;;;5027313;28;20427;-80
2023/08/28 06:20:47;;;;;;;42.17;4.00;;;13.90;25.40;;;;;;5024473;28;20276;-80
2023/08/28 06:23:41;;;;;;;40.00;4.50;;;14.00;19.70;;;;;;5033654;28;20774;-81
2023/08/28 06:26:29;;;;;;;34.97;4.00;;;14.20;20.70;;;;;;5033670;28;20416;-80
2023/08/28 06:29:05;;;;;;;37.10;3.57;;;14.30;23.10;;;;;;5034489;28;20433;-81
2023/08/28 06:31:35;;;;;;;40.33;3.90;;;14.50;25.40;;;;;;5026752;28;20397;-81
2023/08/28 06:34:05;;;;;;;38.30;3.90;;;14.50;28.30;;;;;;5032145;28;20843;-80
2023/08/28 06:36:35;;;;;;;44.00;3.90;;;14.70;25.90;;;;;;5035007;28;20819;-80
2023/08/28 06:39:23;;;;;;;37.67;4.00;;;14.90;23.70;;;;;;5030482;28;21010;-81
2023/08/28 06:41:59;;;;;;;43.43;4.20;;;14.90;14.60;;;;;;5033156;28;20447;-79
2023/08/28 06:44:35;;;;;;;50.63;4.60;;;15.00;15.80;;;;;;5030455;28;20514;-78
2023/08/28 06:47:23;;;;;;;41.77;4.20;;;15.10;16.40;;;;;;5034787;28;20411;-79
2023/08/28 06:49:53;;;;;;;37.10;4.60;;;15.20;10.00;;;;;;5034083;28;20417;-80
2023/08/28 06:52:23;;;;;;;39.27;5.60;;;15.40;9.90;;;;;;5034383;28;20413;-79
2023/08/28 06:55:00;;;;;;;39.97;4.73;;;15.40;8.00;;;;;;5032826;28;20777;-78
2023/08/28 06:57:48;;;;;;;42.30;4.60;;;15.50;1.00;;;;;;5034339;28;20392;-78
2023/08/28 07:01:04;;;;;;;47.80;5.40;;;15.70;1.00;;;;;;5030308;28;20431;-79
2023/08/28 07:03:35;;;;;;;43.83;5.10;;;15.90;1.00;;;;;;5027367;28;20502;-79
2023/08/28 07:06:00;;;;;;;42.77;5.77;;;15.90;1.00;;;;;;5015393;28;20465;-79
2023/08/28 07:08:26;;;;;;;40.90;4.73;;;16.00;1.00;;;;;;5033880;28;20970;-79
2023/08/28 07:11:16;;;;;;;39.40;5.00;;;16.10;1.00;;;;;;5033282;28;20185;-81
2023/08/28 07:14:05;;;;;;;35.93;4.70;;;16.20;1.00;;;;;;5026628;28;20265;-80
2023/08/28 07:16:31;;;;;;;37.73;5.23;;;16.20;1.00;;;;;;5019714;28;20428;-81
2023/08/28 07:19:05;;;;;;;37.27;4.50;;;16.30;1.00;;;;;;5027289;28;20409;-81
2023/08/28 07:21:35;;;;;;;46.83;5.33;;;16.50;1.00;;;;;;5022673;28;20527;-81
2023/08/28 07:24:05;;;;;;;38.70;5.33;;;16.50;1.00;;;;;;5021087;28;20389;-81
2023/08/28 07:26:32;;;;;;;41.30;4.87;;;16.60;1.00;;;;;;5028471;28;20451;-81
2023/08/28 07:29:05;;;;;;;39.60;5.13;;;16.70;1.00;;;;;;5024976;28;20431;-80
2023/08/28 07:31:41;;;;;;;43.30;4.63;;;16.70;1.00;;;;;;5031870;28;20501;-80
2023/08/28 07:34:11;;;;;;;40.53;5.77;;;16.80;1.00;;;;;;5026608;28;20930;-81
2023/08/28 07:36:39;;;;;;;38.47;4.20;;;16.80;1.00;;;;;;5027065;28;20906;-80
2023/08/28 07:39:17;;;;;;;48.60;4.57;;;16.90;1.00;;;;;;5027070;28;20425;-81
2023/08/28 07:41:54;;;;;;;38.00;4.30;;;17.00;1.00;;;;;;5022420;28;20940;-81
2023/08/28 07:44:19;;;;;;;43.70;4.80;;;17.10;1.00;;;;;;5014555;28;20397;-81
2023/08/28 07:46:47;;;;;;;38.80;4.77;;;17.20;1.00;;;;;;5024695;28;20428;-81
2023/08/28 07:49:35;;;;;;;36.23;3.83;;;17.20;1.00;;;;;;5024147;28;20560;-81
2023/08/28 07:52:05;;;;;;;43.80;5.13;;;17.40;1.00;;;;;;5025396;28;20412;-81
2023/08/28 07:54:36;;;;;;;47.47;5.23;;;17.40;1.00;;;;;;5013231;28;20875;-81
2023/08/28 07:57:06;;;;;;;37.43;4.60;;;17.50;1.00;;;;;;5023984;28;20913;-79
2023/08/28 07:59:32;;;;;;;37.93;4.90;;;17.50;1.00;;;;;;5029518;28;20391;-79
2023/08/28 08:01:58;;;;;;;39.03;5.97;;;17.70;1.00;;;;;;5018918;28;20432;-79
2023/08/28 08:04:29;;;;;;;41.13;4.80;;;17.80;1.00;;;;;;5029474;28;20396;-79
2023/08/28 08:07:00;;;;;;;40.83;4.53;;;18.00;1.00;;;;;;5027588;28;20184;-79
2023/08/28 08:09:29;;;;;;;39.97;4.90;;;18.30;1.00;;;;;;5020068;28;20530;-79
2023/08/28 08:11:55;;;;;;;38.90;4.27;;;18.60;1.00;;;;;;5029131;28;20929;-81
2023/08/28 08:14:23;;;;;;;36.50;3.50;;;18.80;1.00;;;;;;5030515;28;20426;-81
2023/08/28 08:16:49;;;;;;;41.30;3.30;;;19.00;1.00;;;;;;5031229;28;20191;-81
2023/08/28 08:19:35;;;;;;;38.23;3.17;;;19.20;1.00;;;;;;5020736;28;20422;-81
2023/08/28 08:22:06;;;;;;;38.83;3.00;;;19.20;1.00;;;;;;5032238;28;20192;-81
2023/08/28 08:24:35;;;;;;;35.53;3.23;;;19.40;1.00;;;;;;5024862;28;20779;-81
2023/08/28 08:27:05;;;;;;;34.93;2.80;;;19.50;1.00;;;;;;5027224;28;20423;-79
2023/08/28 08:29:41;;;;;;;36.50;3.17;;;19.70;1.00;;;;;;5025978;28;21051;-79
2023/08/28 08:32:47;;;;;;;33.43;2.70;;;19.90;1.00;;;;;;5024703;28;20789;-79
2023/08/28 08:35:17;;;;;;;33.17;2.10;;;20.10;1.00;;;;;;5019920;28;20384;-79
2023/08/28 08:37:59;;;;;;;36.67;2.43;;;20.30;1.00;;;;;;5033452;28;20407;-79
2023/08/28 08:40:40;;;;;;;35.00;2.00;;;20.40;1.00;;;;;;5032181;28;20471;-79
2023/08/28 08:43:11;;;;;;;41.10;2.00;;;20.50;1.00;;;;;;5035319;28;20494;-81
2023/08/28 08:45:43;;;;;;;33.43;2.13;;;20.60;1.00;;;;;;5017640;28;20442;-81
2023/08/28 08:48:39;;;;;;;35.63;2.17;;;20.80;1.00;;;;;;5017624;28;20461;-81
2023/08/28 08:51:08;;;;;;;36.13;2.00;;;20.80;1.00;;;;;;5024888;28;20422;-81
2023/08/28 08:53:55;;;;;;;36.47;2.20;;;20.90;1.00;;;;;;5030679;28;20495;-81
2023/08/28 08:56:37;;;;;;;33.17;2.23;;;21.10;1.00;;;;;;5037598;28;20507;-80
2023/08/28 08:59:11;;;;;;;33.97;2.10;;;21.10;1.00;;;;;;5030355;28;20514;-80
2023/08/28 09:01:47;;;;;;;30.73;2.00;;;20.90;1.00;;;;;;5030717;28;20923;-79
2023/08/28 09:04:19;;;;;;;35.80;2.40;;;20.90;1.00;;;;;;5019108;28;20401;-79
2023/08/28 09:07:34;;;;;;;32.00;2.00;;;20.90;1.00;;;;;;5016365;28;21170;-80
2023/08/28 09:10:02;;;;;;;40.33;2.33;;;20.90;1.00;;;;;;5017004;28;20425;-80
2023/08/28 09:12:29;;;;;;;32.83;2.30;;;20.90;1.00;;;;;;5019673;28;20395;-79
2023/08/28 09:15:11;;;;;;;34.23;2.30;;;21.00;1.00;;;;;;5029930;28;20938;-79
2023/08/28 09:17:47;;;;;;;32.87;2.00;;;21.10;1.00;;;;;;5025930;28;20440;-79
2023/08/28 09:20:21;;;;;;;31.77;2.23;;;21.20;1.00;;;;;;5023026;28;20502;-79
2023/08/28 09:22:53;;;;;;;34.70;2.40;;;21.20;1.00;;;;;;5023812;28;20480;-79
2023/08/28 09:25:35;;;;;;;36.33;2.53;;;21.10;1.00;;;;;;5035537;28;20742;-79
2023/08/28 09:28:05;;;;;;;34.00;2.03;;;21.20;1.00;;;;;;5017120;28;20809;-80
2023/08/28 09:30:36;;;;;;;34.20;2.30;;;21.20;1.00;;;;;;5028920;28;20420;-79
2023/08/28 09:33:07;;;;;;;42.90;2.70;;;21.20;1.00;;;;;;5025456;28;20934;-79
2023/08/28 09:35:40;;;;;;;31.20;2.10;;;21.30;1.00;;;;;;5021894;28;20526;-79
2023/08/28 09:38:07;;;;;;;32.17;2.40;;;21.30;1.00;;;;;;5029207;28;20410;-79
2023/08/28 09:40:40;;;;;;;35.93;2.83;;;21.20;1.00;;;;;;5030349;28;20411;-79
2023/08/28 09:43:13;;;;;;;40.83;2.50;;;21.30;1.00;;;;;;5017437;28;20447;-82
2023/08/28 09:45:42;;;;;;;32.20;1.90;;;21.40;1.00;;;;;;5028220;28;20418;-81
2023/08/28 09:48:12;;;;;;;32.30;2.07;;;21.40;1.00;;;;;;5031795;28;20501;-81
2023/08/28 09:50:42;;;;;;;35.73;1.90;;;21.50;1.00;;;;;;5026837;28;20433;-81
2023/08/28 09:53:29;;;;;;;34.10;2.30;;;21.60;1.00;;;;;;5036138;28;20906;-81
2023/08/28 09:56:29;;;;;;;37.17;2.70;;;21.40;1.00;;;;;;5023999;28;20414;-82
2023/08/28 09:59:07;;;;;;;33.63;2.50;;;21.30;1.00;;;;;;5016649;28;20949;-80
2023/08/28 10:01:41;;;;;;;33.90;2.33;;;21.20;1.00;;;;;;5029442;28;20433;-79
2023/08/28 10:04:14;;;;;;;32.17;2.07;;;21.20;1.00;;;;;;5022511;28;20540;-80
2023/08/28 10:06:50;;;;;;;32.03;2.10;;;21.20;1.00;;;;;;5031465;28;20429;-79
2023/08/28 10:09:21;;;;;;;31.30;2.03;;;21.30;1.00;;;;;;5019318;28;20470;-78
2023/08/28 10:11:50;;;;;;;31.57;1.67;;;21.40;1.00;;;;;;5033383;28;20450;-77
2023/08/28 10:14:17;;;;;;;34.57;2.20;;;21.60;1.00;;;;;;5027547;28;20436;-77
2023/08/28 10:16:57;;;;;;;33.87;2.73;;;21.70;1.00;;;;;;5036058;28;20413;-76
2023/08/28 10:19:42;;;;;;;31.93;2.00;;;21.90;1.00;;;;;;5031320;28;20437;-77
2023/08/28 10:22:12;;;;;;;32.20;2.30;;;21.90;1.00;;;;;;5034413;28;20438;-76
2023/08/28 10:24:41;;;;;;;37.10;2.10;;;22.10;1.00;;;;;;5027368;28;20419;-76
2023/08/28 10:27:13;;;;;;;37.70;2.87;;;22.70;1.00;;;;;;5029197;28;20916;-77
2023/08/28 10:29:42;;;;;;;30.60;2.57;;;22.80;1.00;;;;;;5030929;28;20483;-76
2023/08/28 10:32:09;;;;;;;35.53;2.90;;;23.00;1.00;;;;;;5029686;28;20529;-76
2023/08/28 10:34:39;;;;;;;35.47;3.00;;;23.10;1.00;;;;;;5029439;28;20551;-76
2023/08/28 10:37:08;;;;;;;33.60;2.60;;;23.20;1.00;;;;;;5036016;28;20983;-77
2023/08/28 10:39:44;;;;;;;30.40;2.33;;;23.10;1.00;;;;;;5015927;28;20402;-76
2023/08/28 10:42:19;;;;;;;29.87;2.20;;;23.00;1.00;;;;;;5033478;28;20814;-77
2023/08/28 10:44:47;;;;;;;33.80;2.80;;;23.10;1.00;;;;;;5024026;28;20444;-83
2023/08/28 10:47:19;;;;;;;33.33;2.10;;;23.10;1.00;;;;;;5031465;28;20544;-82
2023/08/28 10:49:56;;;;;;;30.07;1.90;;;23.10;1.00;;;;;;5027297;28;20479;-82
2023/08/28 10:53:10;;;;;;;32.60;2.30;;;23.20;1.00;;;;;;5027221;28;20483;-82
2023/08/28 10:55:54;;;;;;;30.87;1.93;;;23.40;1.00;;;;;;5015382;28;20394;-82
2023/08/28 10:58:23;;;;;;;34.70;2.50;;;23.70;1.00;;;;;;5029268;28;20977;-82
2023/08/28 11:01:16;;;;;;;32.80;2.33;;;23.90;1.00;;;;;;5033157;28;20429;-82
2023/08/28 11:03:58;;;;;;;34.13;2.80;;;24.30;1.00;;;;;;5016123;28;20473;-82
2023/08/28 11:06:44;;;;;;;34.80;2.63;;;24.20;1.00;;;;;;5022436;28;20504;-82
2023/08/28 11:09:58;;;;;;;31.80;2.30;;;24.20;1.00;;;;;;5025828;28;20469;-82
2023/08/28 11:12:48;;;;;;;32.07;1.80;;;24.20;1.00;;;;;;5031571;28;20430;-79
2023/08/28 11:15:25;;;;;;;31.67;2.00;;;24.00;1.00;;;;;;5021022;28;20443;-77
2023/08/28 11:18:33;;;;;;;33.00;2.23;;;24.00;1.00;;;;;;5026321;28;20797;-78
2023/08/28 11:21:08;;;;;;;30.07;1.80;;;24.10;1.00;;;;;;5033906;28;20437;-78
2023/08/28 11:23:47;;;;;;;32.83;1.80;;;24.10;1.00;;;;;;5022196;28;20430;-77
2023/08/28 11:26:26;;;;;;;29.57;1.60;;;23.90;1.00;;;;;;5033210;28;20939;-78
2023/08/28 11:29:30;;;;;;;30.77;1.90;;;23.90;1.00;;;;;;5025402;28;20543;-78
2023/08/28 11:32:02;;;;;;;31.83;1.50;;;24.00;1.00;;;;;;5026701;28;20429;-77
2023/08/28 11:34:28;;;;;;;32.67;1.77;;;24.20;1.00;;;;;;5022616;28;20447;-77
2023/08/28 11:36:59;;;;;;;30.23;1.57;;;24.20;1.00;;;;;;5023765;28;20422;-77
2023/08/28 11:39:25;;;;;;;33.33;1.70;;;24.40;1.00;;;;;;5017598;28;20453;-78
2023/08/28 11:41:51;;;;;;;31.03;1.60;;;24.30;1.00;;;;;;5023293;28;20462;-78
2023/08/28 11:44:42;;;;;;;32.67;1.80;;;24.30;1.00;;;;;;5018996;28;20203;-82
2023/08/28 11:47:11;;;;;;;29.87;1.33;;;24.30;1.00;;;;;;5034157;28;20626;-82
2023/08/28 11:49:45;;;;;;;32.10;1.50;;;24.40;1.00;;;;;;5032838;28;20498;-82
2023/08/28 11:52:24;;;;;;;30.20;1.43;;;24.30;1.00;;;;;;5019561;28;20434;-83
2023/08/28 11:55:11;;;;;;;30.43;1.30;;;24.30;1.00;;;;;;5024132;28;20430;-82
2023/08/28 11:57:36;;;;;;;29.00;1.40;;;24.30;1.00;;;;;;5028210;28;20422;-82
2023/08/28 12:00:15;;;;;;;32.47;1.33;;;24.30;1.00;;;;;;5026979;28;20414;-77
2023/08/28 12:02:43;;;;;;;30.70;1.50;;;24.30;1.00;;;;;;5020703;28;20221;-78
2023/08/28 12:05:12;;;;;;;29.30;1.50;;;24.40;1.00;;;;;;5020719;28;20533;-78
2023/08/28 12:07:49;;;;;;;29.33;1.20;;;24.40;1.00;;;;;;5031829;28;20477;-78
2023/08/28 12:10:18;;;;;;;29.93;1.80;;;24.50;1.00;;;;;;5027146;28;20421;-77
2023/08/28 12:12:54;;;;;;;32.27;1.60;;;24.70;1.00;;;;;;5027941;28;20436;-77
2023/08/28 12:15:31;;;;;;;30.30;1.87;;;24.80;1.00;;;;;;5026081;28;20542;-83
2023/08/28 12:18:01;;;;;;;40.63;2.10;;;24.80;1.00;;;;;;5024436;28;20547;-84
2023/08/28 12:20:41;;;;;;;33.37;1.83;;;24.80;1.00;;;;;;5027548;28;20445;-84
2023/08/28 12:23:12;;;;;;;30.53;1.60;;;24.80;1.00;;;;;;5019070;28;20880;-84
2023/08/28 12:25:43;;;;;;;32.37;1.30;;;24.90;1.00;;;;;;5024263;28;20418;-84
2023/08/28 12:28:16;;;;;;;29.50;1.40;;;25.00;1.00;;;;;;5027537;28;20483;-80
2023/08/28 12:30:54;;;;;;;29.60;1.30;;;24.90;1.00;;;;;;5019232;28;20842;-86
2023/08/28 12:33:43;;;;;;;32.20;1.20;;;25.00;1.00;;;;;;5031004;28;20435;-82
2023/08/28 12:36:11;;;;;;;28.87;1.20;;;25.10;1.00;;;;;;5023842;28;20409;-81
2023/08/28 12:39:29;;;;;;;30.90;1.30;;;25.20;1.00;;;;;;5023496;28;20417;-82
2023/08/28 12:42:00;;;;;;;29.07;1.43;;;25.20;1.00;;;;;;5021281;28;20411;-82
2023/08/28 12:44:30;;;;;;;29.30;1.43;;;25.30;1.00;;;;;;5024643;28;20424;-82
2023/08/28 12:47:05;;;;;;;30.17;1.33;;;25.10;1.00;;;;;;5032747;28;20423;-82
2023/08/28 12:49:42;;;;;;;28.77;1.30;;;25.30;1.00;;;;;;5028414;28;20971;-82
2023/08/28 12:52:11;;;;;;;30.03;1.20;;;25.30;1.00;;;;;;5024910;28;20446;-82
2023/08/28 12:54:54;;;;;;;29.07;1.20;;;25.50;1.00;;;;;;5025060;28;20433;-82
2023/08/28 12:57:20;;;;;;;30.10;1.30;;;25.40;1.00;;;;;;5015550;28;20432;-82
2023/08/28 12:59:59;;;;;;;34.57;1.30;;;25.50;1.00;;;;;;5028680;28;20529;-80
2023/08/28 13:02:30;;;;;;;28.80;1.00;;;25.60;1.00;;;;;;5027682;28;20184;-80
2023/08/28 13:05:00;;;;;;;29.83;1.20;;;25.80;1.00;;;;;;5025206;28;20459;-80
2023/08/28 13:07:29;;;;;;;29.10;1.13;;;25.90;1.00;;;;;;5028806;28;20837;-80
2023/08/28 13:09:55;;;;;;;30.53;1.30;;;25.70;1.00;;;;;;5027901;28;20445;-81
2023/08/28 13:12:23;;;;;;;31.33;1.20;;;25.70;1.00;;;;;;5033067;28;20527;-81
2023/08/28 13:14:59;;;;;;;32.07;1.10;;;25.80;1.00;;;;;;5027285;28;20177;-80
2023/08/28 13:17:29;;;;;;;29.40;1.10;;;25.80;1.00;;;;;;5026644;28;20421;-81
2023/08/28 13:19:55;;;;;;;29.40;1.13;;;25.80;1.00;;;;;;5021195;28;20468;-80
2023/08/28 13:23:47;;;;;;;30.73;1.00;;;25.60;1.00;;;;;;5030589;28;20473;-82
2023/08/28 13:25:59;;;;;;;30.20;1.30;;;25.50;1.00;;;;;;5018595;28;20699;-82
2023/08/28 13:28:55;;;;;;;28.67;1.00;;;25.40;1.00;;;;;;5020592;28;20551;-82
2023/08/28 13:31:31;;;;;;;28.70;1.20;;;25.30;1.00;;;;;;5024622;28;20477;-82
2023/08/28 13:37:23;;;;;;;32.63;0.90;;;25.10;1.00;;;;;;5023066;28;20984;-81
2023/08/28 13:40:06;;;;;;;29.30;1.03;;;25.10;1.00;;;;;;5027754;28;20945;-82
2023/08/28 13:42:41;;;;;;;30.37;1.20;;;25.10;1.00;;;;;;5033169;28;20440;-82
2023/08/28 13:45:29;;;;;;;31.50;1.00;;;25.00;1.00;;;;;;5026896;28;20849;-83
2023/08/28 13:48:11;;;;;;;30.30;1.20;;;24.90;1.00;;;;;;5030064;28;20553;-85
2023/08/28 13:50:47;;;;;;;31.87;1.20;;;24.80;1.00;;;;;;5032170;28;20442;-85
2023/08/28 13:53:47;;;;;;;29.57;1.10;;;24.50;1.00;;;;;;5036178;28;20416;-86
2023/08/28 13:59:41;;;;;;;28.77;1.13;;;24.30;1.00;;;;;;5027746;28;20484;-82